Seaview, Virginia
Current Conditions -  °F | °C
As of 12:58 AM on Tuesday 21 Oct 2014 (Local Time) from KLFI Reporting Station
Overcast Overcast  
Wind Chill: 60°   Ceiling: 16000
Heat Index: 60°   Visibility: 10mi
Dew Point: 56°   Wind: 9mph
Humidity: 89%   Direction: 200°SSW
Pressure: 29.96"   Gusts: NA
Location:  37.26°N, 75.95°W
Report Text: KLFI 210458Z AUTO 20008KT 10SM BKN160 OVC180 15/14 A2996 RMK AO2 SLP152 T01530135 401980050 $
Loading
Personal Weather Stations






























Interactive Weather Map
Tropical Storm Tracking
New forecast layout! Learn more

10-Day Weather Forecast

Advertisements
Track Severe Weather on mobile